Time;durP1;ratioP1;P1;durP2;ratioP2;P2;SDS_P1;SDS_P2;PMS_P1;PMS_P2;Temp;Humidity;BMP_temperature;BMP_pressure;BME280_temperature;BME280_humidity;BME280_pressure;Samples;Min_cycle;Max_cycle;Signal;HPM_P1;HPM_P2
2023/09/01 00:00:09;;;;;;;1.58;0.80;;;10.50;99.90;;;;;;4969176;28;20116;-75
2023/09/01 00:02:35;;;;;;;0.50;0.50;;;10.50;99.90;;;;;;4970174;28;20039;-75
2023/09/01 00:05:02;;;;;;;0.80;0.60;;;10.40;99.90;;;;;;4969939;28;20054;-75
2023/09/01 00:07:28;;;;;;;;;;;10.40;99.90;;;;;;4970080;28;20481;-75
2023/09/01 00:09:54;;;;;;;0.90;0.60;;;10.40;99.90;;;;;;4994717;28;20009;-75
2023/09/01 00:12:20;;;;;;;1.20;0.88;;;10.30;99.90;;;;;;4970191;28;20042;-75
2023/09/01 00:14:45;;;;;;;1.58;0.80;;;10.40;99.90;;;;;;4970465;28;20069;-75
2023/09/01 00:17:12;;;;;;;0.90;0.80;;;10.40;99.90;;;;;;4953983;28;20109;-76
2023/09/01 00:19:39;;;;;;;1.38;0.80;;;10.40;99.90;;;;;;4969325;28;20479;-76
2023/09/01 00:22:05;;;;;;;1.02;0.73;;;10.40;99.90;;;;;;4954088;28;20047;-76
2023/09/01 00:24:32;;;;;;;0.60;0.60;;;10.40;99.90;;;;;;4953999;28;20043;-76
2023/09/01 00:26:58;;;;;;;1.50;0.70;;;10.30;99.90;;;;;;4970366;28;20050;-76
2023/09/01 00:29:24;;;;;;;0.98;0.65;;;10.30;99.90;;;;;;4949117;28;20436;-76
2023/09/01 00:31:50;;;;;;;0.57;0.57;;;10.30;99.90;;;;;;4966784;28;20101;-76
2023/09/01 00:34:16;;;;;;;1.13;0.60;;;10.30;99.90;;;;;;4950069;28;20101;-76
2023/09/01 00:36:41;;;;;;;0.95;0.60;;;10.20;99.90;;;;;;4970111;28;20055;-76
2023/09/01 00:39:08;;;;;;;1.00;0.65;;;10.20;99.90;;;;;;4969779;28;20043;-76
2023/09/01 00:41:34;;;;;;;0.68;0.50;;;10.20;99.90;;;;;;4963172;28;20053;-76
2023/09/01 00:44:00;;;;;;;0.68;0.55;;;10.20;99.90;;;;;;4960286;28;20082;-76
2023/09/01 00:46:26;;;;;;;1.15;0.70;;;10.20;99.90;;;;;;4969421;28;20039;-76
2023/09/01 00:48:56;;;;;;;0.60;0.60;;;10.20;99.90;;;;;;4938496;28;20038;-76
2023/09/01 00:51:22;;;;;;;1.55;0.80;;;10.20;99.90;;;;;;4968617;28;20051;-76
2023/09/01 00:53:49;;;;;;;1.75;1.02;;;10.10;99.90;;;;;;4968469;28;20423;-76
2023/09/01 00:56:14;;;;;;;;;;;10.10;99.90;;;;;;4953555;28;20409;-76
2023/09/01 00:58:40;;;;;;;0.70;0.68;;;10.10;99.90;;;;;;4981767;28;19922;-76
2023/09/01 01:01:06;;;;;;;1.38;0.93;;;10.10;99.90;;;;;;4983344;28;20494;-76
2023/09/01 01:03:33;;;;;;;0.88;0.70;;;10.00;99.90;;;;;;4985182;28;20043;-76
2023/09/01 01:06:26;;;;;;;1.00;0.75;;;10.00;99.90;;;;;;4949446;28;20121;-76
2023/09/01 01:09:24;;;;;;;0.90;0.65;;;10.00;99.90;;;;;;4986098;28;20054;-75
2023/09/01 01:12:02;;;;;;;0.70;0.60;;;10.00;99.90;;;;;;4970067;28;20039;-75
2023/09/01 01:14:33;;;;;;;0.98;0.60;;;10.00;99.90;;;;;;4969997;28;20054;-75
2023/09/01 01:17:00;;;;;;;0.50;0.47;;;9.90;99.90;;;;;;4969961;28;20052;-75
2023/09/01 01:19:53;;;;;;;1.30;0.60;;;9.90;99.90;;;;;;4966853;28;20149;-75
2023/09/01 01:22:26;;;;;;;0.82;0.60;;;9.90;99.90;;;;;;4962164;28;20058;-75
2023/09/01 01:24:52;;;;;;;0.75;0.50;;;9.90;99.90;;;;;;4960363;28;20051;-75
2023/09/01 01:27:18;;;;;;;0.77;0.60;;;9.80;99.90;;;;;;4966293;28;20105;-75
2023/09/01 01:29:44;;;;;;;0.47;0.40;;;9.70;99.90;;;;;;4970322;28;20047;-75
2023/09/01 01:32:09;;;;;;;0.65;0.60;;;9.80;99.90;;;;;;4966620;28;20043;-75
2023/09/01 01:34:40;;;;;;;0.60;0.50;;;9.70;99.90;;;;;;4970113;28;20054;-75
2023/09/01 01:37:16;;;;;;;0.68;0.60;;;9.70;99.90;;;;;;4962979;28;20390;-75
2023/09/01 01:39:42;;;;;;;0.50;0.47;;;9.70;99.90;;;;;;4961642;28;20046;-75
2023/09/01 01:42:11;;;;;;;0.93;0.60;;;9.70;99.90;;;;;;4957910;28;20289;-75
2023/09/01 01:44:43;;;;;;;0.43;0.40;;;9.70;99.90;;;;;;4977656;28;20051;-75
2023/09/01 01:47:11;;;;;;;1.05;0.60;;;9.70;99.90;;;;;;4938130;29;20506;-75
2023/09/01 01:49:37;;;;;;;1.38;0.60;;;9.70;99.90;;;;;;4971339;28;20050;-75
2023/09/01 01:52:04;;;;;;;0.70;0.55;;;9.70;99.90;;;;;;4959997;28;20098;-75
2023/09/01 01:54:30;;;;;;;;;;;9.60;99.90;;;;;;4958040;28;20050;-75
2023/09/01 01:56:56;;;;;;;0.77;0.60;;;9.50;99.90;;;;;;4976827;28;19918;-75
2023/09/01 01:59:22;;;;;;;0.82;0.60;;;9.50;99.90;;;;;;4973470;28;20049;-75
2023/09/01 02:01:47;;;;;;;1.35;0.60;;;9.50;99.90;;;;;;4968616;28;20450;-75
2023/09/01 02:04:13;;;;;;;0.90;0.60;;;9.50;99.90;;;;;;4970160;28;20054;-75
2023/09/01 02:06:39;;;;;;;1.08;0.65;;;9.40;99.90;;;;;;4990063;28;20613;-75
2023/09/01 02:09:09;;;;;;;1.27;0.68;;;9.40;99.90;;;;;;4972606;28;20078;-75
2023/09/01 02:11:36;;;;;;;0.77;0.50;;;9.40;99.90;;;;;;4973175;28;20051;-75
2023/09/01 02:14:02;;;;;;;0.77;0.50;;;9.50;99.90;;;;;;4956556;28;20142;-75
2023/09/01 02:16:28;;;;;;;0.63;0.50;;;9.40;99.90;;;;;;4964306;28;20055;-75
2023/09/01 02:18:54;;;;;;;1.20;0.65;;;9.40;99.90;;;;;;4973239;28;20448;-75
2023/09/01 02:21:20;;;;;;;0.52;0.50;;;9.40;99.90;;;;;;4959997;28;20133;-75
2023/09/01 02:23:46;;;;;;;;;;;9.40;99.90;;;;;;4984920;28;20093;-75
2023/09/01 02:26:19;;;;;;;0.63;0.50;;;9.50;99.90;;;;;;4963838;28;20016;-75
2023/09/01 02:28:45;;;;;;;0.60;0.60;;;9.40;99.90;;;;;;4972926;28;20073;-75
2023/09/01 02:31:11;;;;;;;1.00;0.60;;;9.40;99.90;;;;;;4971446;28;20053;-75
2023/09/01 02:33:37;;;;;;;0.80;0.63;;;9.40;99.90;;;;;;4981418;28;20047;-75
2023/09/01 02:36:23;;;;;;;0.80;0.60;;;9.40;99.90;;;;;;4988789;28;20038;-75
2023/09/01 02:38:49;;;;;;;0.60;0.47;;;9.40;99.90;;;;;;4957126;28;20043;-75
2023/09/01 02:41:15;;;;;;;0.70;0.50;;;9.30;99.90;;;;;;4973245;28;20050;-75
2023/09/01 02:43:40;;;;;;;0.70;0.55;;;9.30;99.90;;;;;;4956845;28;20508;-75
2023/09/01 02:46:06;;;;;;;0.45;0.43;;;9.30;99.90;;;;;;4963596;28;20529;-75
2023/09/01 02:48:32;;;;;;;0.40;0.40;;;9.30;99.90;;;;;;4971756;28;20094;-75
2023/09/01 02:50:58;;;;;;;0.45;0.45;;;9.20;99.90;;;;;;4972444;28;20051;-75
2023/09/01 02:53:24;;;;;;;0.68;0.63;;;9.20;99.90;;;;;;4959089;28;20046;-75
2023/09/01 02:55:50;;;;;;;1.17;0.60;;;9.20;99.90;;;;;;4966540;28;20046;-75
2023/09/01 02:58:16;;;;;;;0.73;0.50;;;9.20;99.90;;;;;;4975142;28;20070;-75
2023/09/01 03:00:44;;;;;;;0.90;0.60;;;9.10;99.90;;;;;;4969993;28;20392;-75
2023/09/01 03:03:10;;;;;;;0.50;0.50;;;9.20;99.90;;;;;;4970801;28;20047;-75
2023/09/01 03:05:36;;;;;;;;;;;9.20;99.90;;;;;;4971289;28;20062;-75
2023/09/01 03:08:02;;;;;;;0.52;0.52;;;9.20;99.90;;;;;;4971470;28;19956;-75
2023/09/01 03:10:27;;;;;;;0.40;0.40;;;9.20;99.90;;;;;;4988380;28;20085;-75
2023/09/01 03:12:53;;;;;;;1.00;0.68;;;9.20;99.90;;;;;;4958666;28;20035;-75
2023/09/01 03:15:19;;;;;;;0.98;0.50;;;9.20;99.90;;;;;;4949910;28;20050;-75
2023/09/01 03:17:45;;;;;;;0.70;0.60;;;9.20;99.90;;;;;;4970999;28;20051;-75
2023/09/01 03:20:12;;;;;;;1.10;0.70;;;9.30;99.90;;;;;;4971664;28;20126;-75
2023/09/01 03:22:38;;;;;;;0.90;0.70;;;9.30;99.90;;;;;;4954302;28;20043;-75
2023/09/01 03:25:09;;;;;;;1.13;0.60;;;9.30;99.90;;;;;;4958948;28;20046;-75
2023/09/01 03:27:37;;;;;;;1.05;0.70;;;9.30;99.90;;;;;;4968856;28;20105;-75
2023/09/01 03:30:03;;;;;;;1.20;0.65;;;9.30;99.90;;;;;;4952521;28;20051;-75
2023/09/01 03:32:32;;;;;;;;;;;9.20;99.90;;;;;;4963967;28;20351;-76
2023/09/01 03:34:59;;;;;;;0.88;0.60;;;9.20;99.90;;;;;;4971397;28;19925;-76
2023/09/01 03:37:24;;;;;;;0.70;0.50;;;9.20;99.90;;;;;;4971648;28;20558;-76
2023/09/01 03:39:50;;;;;;;0.75;0.57;;;9.20;99.90;;;;;;4955376;28;20178;-76
2023/09/01 03:42:16;;;;;;;1.83;0.77;;;9.20;99.90;;;;;;4964319;28;20043;-76
2023/09/01 03:44:42;;;;;;;0.70;0.50;;;9.20;99.90;;;;;;4965282;28;20126;-76
2023/09/01 03:47:08;;;;;;;1.02;0.60;;;9.20;99.90;;;;;;4971725;28;20190;-76
2023/09/01 03:49:34;;;;;;;;;;;9.20;99.90;;;;;;4972195;28;20430;-76
2023/09/01 03:52:00;;;;;;;0.63;0.55;;;9.30;99.90;;;;;;5003609;28;19922;-76
2023/09/01 03:54:26;;;;;;;0.85;0.60;;;9.20;99.90;;;;;;4963154;28;20178;-76
2023/09/01 03:56:52;;;;;;;0.82;0.60;;;9.20;99.90;;;;;;4957468;28;20051;-76
2023/09/01 03:59:18;;;;;;;1.08;0.70;;;9.20;99.90;;;;;;4971244;28;20076;-76
2023/09/01 04:01:44;;;;;;;1.83;0.88;;;9.20;99.90;;;;;;4970063;28;20390;-76
2023/09/01 04:04:11;;;;;;;1.35;0.80;;;9.20;99.90;;;;;;4968314;28;20035;-76
2023/09/01 04:06:37;;;;;;;1.05;0.70;;;9.30;99.90;;;;;;4986259;28;20182;-76
2023/09/01 04:09:04;;;;;;;0.77;0.63;;;9.30;99.90;;;;;;4983785;28;20070;-76
2023/09/01 04:11:30;;;;;;;1.33;0.63;;;9.30;99.90;;;;;;4970693;28;20053;-76
2023/09/01 04:13:56;;;;;;;0.80;0.70;;;9.20;99.90;;;;;;4970946;28;20046;-76
2023/09/01 04:16:23;;;;;;;1.38;0.82;;;9.20;99.90;;;;;;4970822;28;20046;-76
2023/09/01 04:18:48;;;;;;;0.65;0.60;;;9.20;99.90;;;;;;4941847;29;20074;-76
2023/09/01 04:21:14;;;;;;;0.55;0.55;;;9.20;99.90;;;;;;4970090;28;20121;-76
2023/09/01 04:23:40;;;;;;;0.80;0.60;;;9.20;99.90;;;;;;4954720;28;20050;-76
2023/09/01 04:26:07;;;;;;;1.05;0.75;;;9.20;99.90;;;;;;4970557;28;20043;-76
2023/09/01 04:28:33;;;;;;;1.00;0.70;;;9.20;99.90;;;;;;4954642;28;20051;-76
2023/09/01 04:30:59;;;;;;;;;;;9.10;99.90;;;;;;4971077;28;20035;-76
2023/09/01 04:33:29;;;;;;;1.55;0.80;;;9.10;99.90;;;;;;4995743;28;20378;-76
2023/09/01 04:35:57;;;;;;;1.27;0.70;;;9.10;99.90;;;;;;4964795;28;20502;-76
2023/09/01 04:38:23;;;;;;;0.88;0.52;;;9.00;99.90;;;;;;4957590;28;20050;-76
2023/09/01 04:40:56;;;;;;;0.80;0.60;;;9.00;99.90;;;;;;4970675;28;20047;-76
2023/09/01 04:43:25;;;;;;;3.47;0.70;;;9.00;99.90;;;;;;4965250;28;20055;-76
2023/09/01 04:45:51;;;;;;;0.82;0.65;;;8.90;99.90;;;;;;4958846;28;20106;-76
2023/09/01 04:48:17;;;;;;;;;;;8.90;99.90;;;;;;4965792;28;20125;-76
2023/09/01 04:50:43;;;;;;;0.90;0.65;;;8.90;99.90;;;;;;4960809;28;19933;-76
2023/09/01 04:53:09;;;;;;;0.60;0.55;;;8.90;99.90;;;;;;4970148;28;20043;-76
2023/09/01 04:55:34;;;;;;;0.63;0.60;;;8.90;99.90;;;;;;4962817;28;20125;-76
2023/09/01 04:58:00;;;;;;;0.93;0.63;;;8.90;99.90;;;;;;4980857;28;20578;-77
2023/09/01 05:00:26;;;;;;;0.90;0.80;;;8.90;99.90;;;;;;4961836;28;20047;-76
2023/09/01 05:02:52;;;;;;;0.80;0.77;;;8.90;99.90;;;;;;4963045;28;20130;-76
2023/09/01 05:05:17;;;;;;;1.00;0.65;;;8.90;99.90;;;;;;4949707;29;20051;-76
2023/09/01 05:07:43;;;;;;;1.45;0.73;;;8.90;99.90;;;;;;4965568;28;20057;-76
2023/09/01 05:10:09;;;;;;;1.15;0.80;;;9.00;99.90;;;;;;4973910;28;20417;-76
2023/09/01 05:12:35;;;;;;;1.20;0.73;;;9.00;99.90;;;;;;5002422;28;20043;-76
2023/09/01 05:15:01;;;;;;;0.63;0.60;;;9.00;99.90;;;;;;4968679;28;20121;-76
2023/09/01 05:17:28;;;;;;;0.77;0.60;;;9.00;99.90;;;;;;4969389;28;20077;-76
2023/09/01 05:19:54;;;;;;;1.25;0.60;;;9.10;99.90;;;;;;4953374;28;20047;-76
2023/09/01 05:22:20;;;;;;;1.45;0.65;;;9.10;99.90;;;;;;4970582;28;20105;-76
2023/09/01 05:24:47;;;;;;;1.05;0.75;;;9.20;99.90;;;;;;4958314;28;20133;-76
2023/09/01 05:27:13;;;;;;;0.50;0.50;;;9.20;99.90;;;;;;4958015;28;20522;-76
2023/09/01 05:29:39;;;;;;;1.30;0.70;;;9.20;99.90;;;;;;4974240;28;20133;-76
2023/09/01 05:32:04;;;;;;;1.13;0.60;;;9.30;99.90;;;;;;4956073;28;20081;-76
2023/09/01 05:34:30;;;;;;;0.70;0.60;;;9.30;99.90;;;;;;4989491;28;20105;-76
2023/09/01 05:36:57;;;;;;;0.90;0.70;;;9.40;99.90;;;;;;4953745;28;20042;-75
2023/09/01 05:39:23;;;;;;;0.77;0.57;;;9.40;99.90;;;;;;5002968;28;20054;-74
2023/09/01 05:41:49;;;;;;;0.93;0.75;;;9.50;99.90;;;;;;4973086;28;20093;-77
2023/09/01 05:44:15;;;;;;;1.02;0.60;;;9.60;99.90;;;;;;4972590;28;20047;-76
2023/09/01 05:46:40;;;;;;;0.85;0.70;;;9.70;99.90;;;;;;4957192;28;20454;-76
2023/09/01 05:49:06;;;;;;;0.77;0.63;;;9.80;99.90;;;;;;4955496;28;20047;-76
2023/09/01 05:51:32;;;;;;;0.50;0.50;;;9.90;99.90;;;;;;4972896;28;20079;-76
2023/09/01 05:53:58;;;;;;;1.02;0.80;;;10.00;99.90;;;;;;4972168;28;20045;-76
2023/09/01 05:56:23;;;;;;;1.85;0.90;;;10.20;99.90;;;;;;4984146;28;20128;-76
2023/09/01 05:58:49;;;;;;;0.70;0.60;;;10.30;99.90;;;;;;4973595;28;20129;-76
2023/09/01 06:01:15;;;;;;;0.50;0.50;;;10.50;99.90;;;;;;4972070;28;20081;-78
2023/09/01 06:03:40;;;;;;;0.65;0.50;;;10.60;99.90;;;;;;4954863;28;20049;-77
2023/09/01 06:06:07;;;;;;;0.57;0.57;;;10.70;99.90;;;;;;4986534;28;20043;-76
2023/09/01 06:08:33;;;;;;;0.63;0.50;;;10.70;99.90;;;;;;4988291;28;20054;-77
2023/09/01 06:11:09;;;;;;;0.50;0.50;;;10.90;99.90;;;;;;4966576;28;20056;-76
2023/09/01 06:13:35;;;;;;;0.68;0.68;;;11.00;99.90;;;;;;4982114;28;20038;-77
2023/09/01 06:16:04;;;;;;;0.40;0.40;;;11.10;99.90;;;;;;4977965;28;20109;-77
2023/09/01 06:18:30;;;;;;;0.40;0.40;;;11.20;99.90;;;;;;4960432;28;20046;-77
2023/09/01 06:20:56;;;;;;;0.30;0.30;;;11.30;99.90;;;;;;4994952;28;20390;-77
2023/09/01 06:23:22;;;;;;;0.68;0.50;;;11.40;99.90;;;;;;4961253;28;20046;-78
2023/09/01 06:25:48;;;;;;;0.40;0.40;;;11.50;99.90;;;;;;4958083;28;20448;-79
2023/09/01 06:28:14;;;;;;;0.40;0.40;;;11.60;99.90;;;;;;4999727;28;20049;-77
2023/09/01 06:30:41;;;;;;;0.35;0.35;;;11.70;99.90;;;;;;4961099;28;20390;-77
2023/09/01 06:33:08;;;;;;;0.40;0.40;;;11.80;99.90;;;;;;4998009;28;20045;-77
2023/09/01 06:35:34;;;;;;;0.77;0.50;;;12.10;99.90;;;;;;4962718;28;20057;-78
2023/09/01 06:38:04;;;;;;;0.52;0.40;;;12.30;99.90;;;;;;4977957;28;20138;-78
2023/09/01 06:40:30;;;;;;;0.80;0.55;;;12.50;99.90;;;;;;4961381;28;20062;-78
2023/09/01 06:42:56;;;;;;;0.47;0.40;;;12.90;99.90;;;;;;4973046;28;20047;-77
2023/09/01 06:45:22;;;;;;;0.40;0.40;;;13.30;99.90;;;;;;4955581;28;20106;-78
2023/09/01 06:47:52;;;;;;;1.00;0.60;;;13.60;99.90;;;;;;4956596;28;20074;-78
2023/09/01 06:50:19;;;;;;;0.50;0.50;;;13.90;99.90;;;;;;4962438;28;20051;-77
2023/09/01 06:52:45;;;;;;;1.35;0.60;;;14.20;99.90;;;;;;4956711;28;20039;-77
2023/09/01 06:55:12;;;;;;;0.50;0.50;;;14.30;99.90;;;;;;4998577;28;20042;-78
2023/09/01 06:57:38;;;;;;;0.70;0.70;;;14.30;99.90;;;;;;4971129;28;20051;-78
2023/09/01 07:00:05;;;;;;;1.20;0.45;;;14.60;99.90;;;;;;4997014;28;20057;-77
2023/09/01 07:02:31;;;;;;;0.47;0.47;;;14.90;99.90;;;;;;4978463;28;20406;-78
2023/09/01 07:04:57;;;;;;;;;;;15.20;99.90;;;;;;4962587;28;20509;-76
2023/09/01 07:07:22;;;;;;;0.93;0.50;;;15.30;99.90;;;;;;5004737;28;19926;-77
2023/09/01 07:09:48;;;;;;;0.65;0.40;;;15.30;99.90;;;;;;4971903;28;20097;-78
2023/09/01 07:12:15;;;;;;;0.80;0.50;;;15.30;99.90;;;;;;4955447;28;20094;-77
2023/09/01 07:14:40;;;;;;;1.27;0.60;;;15.30;99.90;;;;;;4970482;28;20050;-78
2023/09/01 07:17:06;;;;;;;1.90;0.70;;;15.30;99.90;;;;;;4942082;29;20571;-77
2023/09/01 07:19:32;;;;;;;1.63;0.73;;;15.30;99.90;;;;;;4954845;28;20046;-77
2023/09/01 07:21:57;;;;;;;0.68;0.52;;;15.40;99.90;;;;;;4971832;28;20050;-78
2023/09/01 07:24:23;;;;;;;0.65;0.50;;;15.60;99.90;;;;;;4958248;28;20042;-77
2023/09/01 07:26:49;;;;;;;0.90;0.50;;;15.70;99.90;;;;;;4971770;28;20134;-77
2023/09/01 07:29:14;;;;;;;0.70;0.60;;;15.90;99.90;;;;;;4987699;28;20465;-78
2023/09/01 07:31:40;;;;;;;0.45;0.40;;;16.10;99.90;;;;;;4955830;28;20051;-77
2023/09/01 07:34:06;;;;;;;0.77;0.63;;;16.30;99.90;;;;;;4958753;28;20043;-78
2023/09/01 07:36:31;;;;;;;0.60;0.40;;;16.50;99.90;;;;;;4970944;28;20363;-78
2023/09/01 07:38:57;;;;;;;0.50;0.40;;;16.70;99.90;;;;;;4955418;28;20046;-78
2023/09/01 07:41:23;;;;;;;1.05;0.38;;;16.90;99.90;;;;;;4974379;28;20332;-77
2023/09/01 07:43:49;;;;;;;0.65;0.50;;;17.00;99.90;;;;;;4971191;28;20440;-78
2023/09/01 07:46:15;;;;;;;0.82;0.52;;;16.90;99.90;;;;;;4971353;28;20109;-77
2023/09/01 07:48:40;;;;;;;0.90;0.60;;;16.90;99.90;;;;;;4971204;28;20403;-77
2023/09/01 07:51:06;;;;;;;0.50;0.40;;;16.80;99.90;;;;;;4971226;28;20053;-77
2023/09/01 07:53:32;;;;;;;1.92;0.60;;;16.80;99.90;;;;;;4971361;28;20412;-78
2023/09/01 07:55:58;;;;;;;0.75;0.50;;;16.70;70.40;;;;;;4971407;28;20109;-78
2023/09/01 07:58:23;;;;;;;0.50;0.40;;;16.60;1.00;;;;;;4971030;28;20645;-77
2023/09/01 08:00:51;;;;;;;0.77;0.40;;;16.60;1.00;;;;;;4954830;28;20047;-77
2023/09/01 08:03:17;;;;;;;0.65;0.40;;;16.50;1.00;;;;;;4953256;28;20102;-77
2023/09/01 08:05:43;;;;;;;0.70;0.40;;;16.50;99.90;;;;;;4964073;28;20562;-77
2023/09/01 08:08:12;;;;;;;0.47;0.40;;;16.60;1.00;;;;;;4964665;28;20051;-76
2023/09/01 08:10:38;;;;;;;2.05;0.60;;;16.70;1.00;;;;;;4955250;28;20043;-76
2023/09/01 08:13:05;;;;;;;;;;;16.90;99.90;;;;;;4971564;28;20470;-76
2023/09/01 08:15:32;;;;;;;0.82;0.50;;;17.00;99.90;;;;;;5003545;28;20441;-76
2023/09/01 08:17:58;;;;;;;0.60;0.40;;;17.10;99.90;;;;;;4970886;28;20046;-76
2023/09/01 08:20:24;;;;;;;;;;;17.20;19.40;;;;;;4939578;28;20175;-76
2023/09/01 08:22:49;;;;;;;1.17;0.40;;;17.20;99.90;;;;;;5003435;28;19965;-76
2023/09/01 08:25:15;;;;;;;;;;;17.20;99.90;;;;;;4955378;28;20057;-76
2023/09/01 08:27:41;;;;;;;1.00;0.55;;;17.20;24.50;;;;;;4970807;28;20270;-76
2023/09/01 08:30:07;;;;;;;0.40;0.30;;;17.20;1.00;;;;;;4946917;29;20114;-76
2023/09/01 08:32:33;;;;;;;0.82;0.45;;;17.30;1.00;;;;;;4951705;28;20085;-76
2023/09/01 08:35:00;;;;;;;;;;;17.30;1.00;;;;;;4942307;28;20459;-76
2023/09/01 08:37:25;;;;;;;0.30;0.30;;;17.40;1.00;;;;;;4986952;28;19969;-76
2023/09/01 08:39:51;;;;;;;1.02;0.32;;;17.40;1.00;;;;;;4954495;28;20077;-76
2023/09/01 08:42:17;;;;;;;;;;;17.60;1.00;;;;;;4951977;29;20051;-76
2023/09/01 08:44:43;;;;;;;0.82;0.40;;;17.60;99.90;;;;;;4953869;28;19926;-76
2023/09/01 08:47:10;;;;;;;0.32;0.30;;;17.60;95.40;;;;;;4946545;29;20058;-76
2023/09/01 08:49:36;;;;;;;0.73;0.40;;;17.60;1.00;;;;;;4965515;28;20165;-76
2023/09/01 08:52:02;;;;;;;;;;;17.50;99.90;;;;;;4970893;28;20078;-76
2023/09/01 08:54:28;;;;;;;1.13;0.40;;;17.60;99.90;;;;;;4942021;28;20044;-76
2023/09/01 08:56:54;;;;;;;1.40;0.50;;;17.50;82.00;;;;;;4968982;28;20051;-76
2023/09/01 08:59:20;;;;;;;;;;;17.50;1.00;;;;;;4970840;28;20065;-76
2023/09/01 09:01:47;;;;;;;0.60;0.40;;;17.50;99.90;;;;;;5000000;28;19922;-76
2023/09/01 09:04:13;;;;;;;0.52;0.43;;;17.60;99.90;;;;;;4975814;28;20050;-76
2023/09/01 09:06:40;;;;;;;;;;;17.60;99.90;;;;;;4986688;28;20053;-76
2023/09/01 09:09:16;;;;;;;0.73;0.40;;;17.60;99.90;;;;;;5002511;28;19973;-76
2023/09/01 09:11:56;;;;;;;0.40;0.30;;;17.70;1.00;;;;;;4970319;28;20035;-76
2023/09/01 09:14:22;;;;;;;0.40;0.28;;;17.60;1.00;;;;;;4970182;28;20109;-76
2023/09/01 09:16:52;;;;;;;;;;;17.70;1.00;;;;;;4954624;28;20047;-76
2023/09/01 09:19:19;;;;;;;0.73;0.40;;;17.70;1.00;;;;;;4970049;28;20016;-76
2023/09/01 09:21:45;;;;;;;0.52;0.35;;;17.60;1.00;;;;;;4966925;28;20484;-76
2023/09/01 09:24:11;;;;;;;;;;;17.70;1.00;;;;;;4984772;28;20055;-76
2023/09/01 09:26:36;;;;;;;0.50;0.40;;;17.70;80.80;;;;;;4979041;28;19919;-76
2023/09/01 09:29:04;;;;;;;;;;;17.70;22.00;;;;;;4964618;28;20129;-76
2023/09/01 09:31:35;;;;;;;1.35;0.50;;;17.70;29.90;;;;;;4970241;28;20234;-76
2023/09/01 09:34:24;;;;;;;0.85;0.40;;;17.80;63.70;;;;;;4958818;28;20046;-76
2023/09/01 09:36:50;;;;;;;0.65;0.40;;;17.80;10.90;;;;;;4955020;28;20039;-76
2023/09/01 09:39:25;;;;;;;;;;;17.80;1.00;;;;;;4964426;28;20105;-77
2023/09/01 09:41:53;;;;;;;0.52;0.40;;;17.90;99.90;;;;;;4957742;28;19976;-76
2023/09/01 09:44:48;;;;;;;1.30;0.60;;;17.90;99.90;;;;;;4970187;28;20039;-76
2023/09/01 09:47:14;;;;;;;0.45;0.38;;;17.90;1.00;;;;;;4959059;28;20062;-76
2023/09/01 09:49:40;;;;;;;;;;;18.00;99.90;;;;;;4952200;28;20066;-76
2023/09/01 09:52:09;;;;;;;0.85;0.40;;;18.00;99.90;;;;;;4995216;28;19973;-76
2023/09/01 09:54:40;;;;;;;0.22;0.22;;;18.00;99.90;;;;;;4960927;28;20142;-76
2023/09/01 09:57:10;;;;;;;0.47;0.40;;;18.00;1.00;;;;;;4953830;28;20077;-76
2023/09/01 09:59:45;;;;;;;0.52;0.30;;;18.00;1.00;;;;;;4954238;28;20410;-76
2023/09/01 10:02:38;;;;;;;0.73;0.32;;;18.00;14.30;;;;;;4956665;28;20057;-76
2023/09/01 10:05:06;;;;;;;1.08;0.40;;;18.00;60.60;;;;;;4967187;28;20051;-76
2023/09/01 10:07:33;;;;;;;0.68;0.40;;;18.00;99.90;;;;;;4976882;28;20155;-76
2023/09/01 10:09:59;;;;;;;0.63;0.40;;;18.00;99.90;;;;;;4957501;28;20433;-76
2023/09/01 10:12:26;;;;;;;0.30;0.30;;;18.00;99.90;;;;;;4973008;28;20038;-76
2023/09/01 10:14:54;;;;;;;0.57;0.40;;;18.00;99.90;;;;;;4973576;28;20051;-76
2023/09/01 10:17:22;;;;;;;0.65;0.40;;;17.90;99.90;;;;;;4971925;28;20418;-76
2023/09/01 10:19:48;;;;;;;0.63;0.38;;;18.00;99.90;;;;;;4977426;28;20082;-76
2023/09/01 10:22:17;;;;;;;;;;;18.00;1.00;;;;;;4957595;28;20089;-76
2023/09/01 10:25:20;;;;;;;1.10;0.40;;;18.10;99.90;;;;;;4972975;28;19965;-76
2023/09/01 10:28:10;;;;;;;0.57;0.40;;;18.30;1.00;;;;;;4970149;28;20045;-76
2023/09/01 10:30:41;;;;;;;0.40;0.40;;;18.50;1.00;;;;;;4981850;28;20043;-76
2023/09/01 10:33:16;;;;;;;0.90;0.50;;;18.90;99.90;;;;;;4956584;28;20138;-76
2023/09/01 10:35:52;;;;;;;0.80;0.35;;;19.00;99.90;;;;;;4945227;29;20085;-76
2023/09/01 10:38:20;;;;;;;;;;;19.00;99.90;;;;;;4973346;28;20046;-76
2023/09/01 10:40:53;;;;;;;1.02;0.40;;;19.00;58.00;;;;;;4972904;28;19918;-76
2023/09/01 10:43:37;;;;;;;0.77;0.50;;;19.00;99.90;;;;;;4968177;28;20046;-76
2023/09/01 10:46:26;;;;;;;0.95;0.80;;;19.00;99.90;;;;;;4966470;28;20049;-76
2023/09/01 10:49:00;;;;;;;0.70;0.40;;;19.10;81.10;;;;;;4951924;28;20130;-76
2023/09/01 10:51:25;;;;;;;0.47;0.32;;;19.10;1.00;;;;;;4973146;28;20118;-76
2023/09/01 10:53:52;;;;;;;;;;;19.20;19.30;;;;;;4973060;28;20527;-76
2023/09/01 10:56:20;;;;;;;0.40;0.40;;;19.30;99.90;;;;;;4972576;28;19933;-76
2023/09/01 10:58:53;;;;;;;0.98;0.60;;;19.40;99.90;;;;;;4972498;28;20407;-76
2023/09/01 11:01:27;;;;;;;1.65;0.63;;;19.50;79.30;;;;;;4975853;28;20051;-76
2023/09/01 11:03:54;;;;;;;1.10;0.50;;;19.60;99.90;;;;;;4972516;28;20055;-76
2023/09/01 11:06:22;;;;;;;0.95;0.50;;;19.60;99.90;;;;;;4956269;28;20042;-76
2023/09/01 11:08:59;;;;;;;1.35;0.70;;;19.70;99.90;;;;;;4971881;28;20109;-76
2023/09/01 11:11:24;;;;;;;0.88;0.40;;;19.80;94.80;;;;;;4972241;28;20062;-76
2023/09/01 11:14:09;;;;;;;0.90;0.30;;;20.00;59.60;;;;;;4972284;28;20051;-76
2023/09/01 11:16:35;;;;;;;0.40;0.30;;;20.20;1.00;;;;;;4956474;28;20383;-76
2023/09/01 11:19:01;;;;;;;0.88;0.50;;;20.30;1.00;;;;;;4970559;28;20105;-76
2023/09/01 11:21:27;;;;;;;1.88;0.63;;;20.40;1.00;;;;;;4959634;28;20051;-76
2023/09/01 11:23:58;;;;;;;0.80;0.50;;;20.40;99.90;;;;;;4972044;28;20047;-76
2023/09/01 11:26:24;;;;;;;0.80;0.50;;;20.30;99.90;;;;;;4958356;28;20078;-76
2023/09/01 11:28:50;;;;;;;2.05;0.60;;;20.20;1.00;;;;;;4940077;28;20124;-76
2023/09/01 11:31:15;;;;;;;1.08;0.60;;;20.20;1.00;;;;;;4942687;28;20090;-76
2023/09/01 11:33:50;;;;;;;0.70;0.40;;;20.20;99.90;;;;;;4965793;28;20434;-76
2023/09/01 11:36:17;;;;;;;0.32;0.30;;;20.30;99.90;;;;;;4971919;28;20374;-76
2023/09/01 11:38:44;;;;;;;0.60;0.43;;;20.50;99.90;;;;;;4956164;28;20048;-76
2023/09/01 11:41:19;;;;;;;1.27;0.65;;;20.70;99.90;;;;;;4942181;28;20058;-76
2023/09/01 11:43:46;;;;;;;1.50;0.60;;;20.90;99.90;;;;;;4971969;28;20511;-76
2023/09/01 11:46:12;;;;;;;1.55;0.43;;;21.00;99.90;;;;;;4971481;28;20393;-76
2023/09/01 11:48:38;;;;;;;1.15;0.40;;;21.30;99.90;;;;;;4971618;28;20042;-76
2023/09/01 11:51:04;;;;;;;1.20;0.60;;;21.50;99.90;;;;;;4959102;28;20045;-76
2023/09/01 11:53:33;;;;;;;1.27;0.70;;;21.80;99.90;;;;;;4970891;28;20153;-76
2023/09/01 11:56:02;;;;;;;1.27;0.50;;;22.00;2.40;;;;;;4971807;28;20387;-76
2023/09/01 11:58:34;;;;;;;0.70;0.40;;;22.30;99.90;;;;;;4971338;28;20074;-76
2023/09/01 12:01:12;;;;;;;1.50;0.60;;;22.50;80.00;;;;;;4961100;28;20055;-77
2023/09/01 12:03:42;;;;;;;1.45;0.60;;;22.70;1.00;;;;;;4982227;28;20125;-78
2023/09/01 12:06:22;;;;;;;0.85;0.60;;;22.70;1.00;;;;;;4962642;28;20413;-77
2023/09/01 12:08:49;;;;;;;1.33;0.60;;;22.70;1.00;;;;;;4971284;28;20383;-76
2023/09/01 12:11:16;;;;;;;1.92;0.80;;;22.80;58.60;;;;;;4965831;28;20046;-78
2023/09/01 12:13:45;;;;;;;1.30;0.70;;;22.80;1.00;;;;;;4966471;28;20038;-77
2023/09/01 12:16:27;;;;;;;0.98;0.60;;;22.90;15.50;;;;;;4971187;28;20046;-78
2023/09/01 12:19:03;;;;;;;1.58;0.77;;;22.70;1.00;;;;;;4972596;28;20039;-78
2023/09/01 12:21:29;;;;;;;1.23;0.70;;;22.50;33.90;;;;;;4971484;28;20085;-76
2023/09/01 12:24:05;;;;;;;1.02;0.60;;;22.40;1.00;;;;;;4955450;28;20054;-78
2023/09/01 12:26:30;;;;;;;1.33;0.65;;;22.10;1.00;;;;;;4968080;28;20086;-78
2023/09/01 12:28:56;;;;;;;1.52;0.70;;;22.40;99.90;;;;;;4965448;28;20074;-77
2023/09/01 12:31:22;;;;;;;0.95;0.55;;;22.40;99.90;;;;;;4970254;28;20051;-76
2023/09/01 12:33:47;;;;;;;1.60;0.88;;;22.30;1.00;;;;;;4971188;28;20480;-76
2023/09/01 12:36:13;;;;;;;0.65;0.60;;;22.50;1.00;;;;;;4970743;28;20447;-76
2023/09/01 12:38:39;;;;;;;1.67;0.65;;;22.70;65.40;;;;;;4962552;28;20047;-76
2023/09/01 12:41:04;;;;;;;2.17;0.90;;;23.00;9.70;;;;;;4981436;28;20050;-76
2023/09/01 12:43:30;;;;;;;1.33;0.85;;;23.30;1.00;;;;;;4970801;28;20109;-76
2023/09/01 12:45:56;;;;;;;1.23;0.73;;;23.40;1.00;;;;;;4954829;28;20104;-76
2023/09/01 12:48:21;;;;;;;2.00;0.80;;;23.40;99.90;;;;;;4956906;28;20047;-76
2023/09/01 12:50:48;;;;;;;1.75;0.90;;;23.50;1.00;;;;;;4970468;28;20042;-76
2023/09/01 12:53:15;;;;;;;2.20;0.80;;;23.50;99.90;;;;;;4970393;28;20046;-76
2023/09/01 12:55:41;;;;;;;2.15;0.80;;;23.60;99.90;;;;;;4946309;29;20113;-76
2023/09/01 12:58:06;;;;;;;2.03;1.02;;;23.70;99.90;;;;;;4982043;28;20125;-78
2023/09/01 13:00:32;;;;;;;1.77;0.85;;;23.80;99.90;;;;;;4963983;28;20558;-78